Pennsylvania Furnace, Pennsylvania
Current Conditions -  °F | °C
As of 12:53 PM on Wednesday 28 Jan 2015 (Local Time) from KUNV Reporting Station
Clear Clear  
Wind Chill: 13°   Ceiling: Unl
Heat Index: 25°   Visibility: 10mi
Dew Point:   Wind: 13mph
Humidity: 43%   Direction: 290°WNW
Pressure: 30.2"   Gusts: NA
Location:  40.71°N, 78°W
Report Text: KUNV 281753Z 29011KT 10SM SKC M04/M15 A3020
Loading
Personal Weather Stations






























Interactive Weather Map New forecast layout! Learn more

10-Day Weather Forecast

Advertisements
Track Severe Weather on mobile